Station Historical Data
Daily Summary for January 16, 2018 Units:  English    Metric   Both
« Previous Day
Next Day »
Daily Weekly Monthly Yearly Custom
  High: Low: Average:
Temperature: TemperatureF °F 15.7 °F 22.4 °F
Dew Point: DewpointF °F 10.3 °F 17.7 °F
Humidity: Humidity% 71% 82%
Wind Speed: WindSpeedMPHmph 0.0mph 3.6mph
Wind Gust: WindSpeedGustMPHmph - -
Wind- - SW
Pressure: PressureIn in 30.35 in -
Precipitation: 0.00 in    
Historical Graphs
 
 
Tabular Data for January 16, 2018
Time Temperature Dew Point Pressure Wind Wind Speed Wind Gust Humidity Rainfall Rate (Hourly)
TemperatureF °F DewpointF °F PressureIn in Calm     Humidity% HourlyPrecipIn in
00:04 19.5 °F 16.3 °F 30.35 in Calm   1.0 mph 87% 0.00 in
00:09 19.7 °F 16.5 °F 30.35 in Calm   2.0 mph 87% 0.00 in
00:14 19.9 °F 16.7 °F 30.35 in Calm   3.0 mph 87% 0.00 in
00:19 20.1 °F 16.9 °F 30.35 in SE 1.0 mph 3.0 mph 87% 0.00 in
00:29 20.4 °F 16.9 °F 30.35 in Calm     86% 0.00 in
00:34 20.5 °F 17.0 °F 30.35 in Calm     86% 0.00 in
00:44 20.7 °F 16.9 °F 30.35 in Calm     85% 0.00 in
00:49 20.9 °F 17.1 °F 30.35 in Calm     85% 0.00 in
00:54 20.9 °F 17.1 °F 30.35 in Calm     85% 0.00 in
00:59 21.0 °F 17.2 °F 30.35 in Calm     85% 0.00 in
01:04 21.0 °F 17.2 °F 30.35 in Calm     85% 0.00 in
01:09 21.0 °F 17.2 °F 30.35 in Calm     85% 0.00 in
01:14 20.9 °F 17.1 °F 30.35 in Calm     85% 0.00 in
01:19 20.9 °F 17.1 °F 30.35 in Calm     85% 0.00 in
01:24 20.9 °F 17.1 °F 30.35 in Calm     85% 0.00 in
01:29 20.9 °F 17.1 °F 30.35 in Calm     85% 0.00 in
01:34 21.0 °F 17.2 °F 30.35 in Calm     85% 0.00 in
01:39 21.0 °F 17.2 °F 30.35 in Calm     85% 0.00 in
01:44 21.0 °F 17.2 °F 30.35 in Calm     85% 0.00 in
01:49 21.1 °F 17.3 °F 30.35 in Calm     85% 0.00 in
01:54 21.1 °F 17.3 °F 30.35 in Calm     85% 0.00 in
02:04 21.2 °F 17.4 °F 30.36 in Calm     85% 0.00 in
02:09 21.2 °F 17.4 °F 30.36 in Calm     85% 0.00 in
02:24 21.3 °F 17.8 °F 30.36 in Calm     86% 0.00 in
02:29 21.4 °F 17.9 °F 30.36 in Calm     86% 0.00 in
02:34 21.5 °F 18.0 °F 30.36 in Calm     86% 0.00 in
02:39 21.5 °F 18.0 °F 30.36 in Calm     86% 0.00 in
02:44 21.6 °F 18.1 °F 30.36 in Calm     86% 0.00 in
02:49 21.7 °F 18.2 °F 30.35 in Calm     86% 0.00 in
02:54 21.8 °F 18.3 °F 30.36 in Calm     86% 0.00 in
03:09 22.0 °F 18.5 °F 30.36 in Calm     86% 0.00 in
03:14 22.1 °F 18.8 °F 30.36 in Calm     87% 0.00 in
03:19 22.2 °F 18.9 °F 30.36 in Calm     87% 0.00 in
03:24 22.3 °F 19.0 °F 30.36 in Calm     87% 0.00 in
03:29 22.4 °F 19.1 °F 30.36 in Calm     87% 0.00 in
03:34 22.5 °F 19.2 °F 30.36 in Calm   3.0 mph 87% 0.00 in
03:39 22.7 °F 19.4 °F 30.36 in Calm   4.0 mph 87% 0.00 in
03:49 22.7 °F 19.4 °F 30.36 in SSE 2.0 mph 3.0 mph 87% 0.00 in
03:54 22.8 °F 19.5 °F 30.36 in SSE 2.0 mph 3.0 mph 87% 0.00 in
03:59 22.9 °F 19.6 °F 30.36 in South 4.0 mph 5.0 mph 87% 0.00 in
04:04 23.0 °F 19.7 °F 30.36 in South 2.0 mph 5.0 mph 87% 0.00 in
04:09 23.2 °F 19.6 °F 30.36 in South 2.0 mph 4.0 mph 86% 0.00 in
04:14 23.2 °F 19.6 °F 30.36 in South 2.0 mph 5.0 mph 86% 0.00 in
04:19 23.4 °F 19.8 °F 30.36 in South 2.0 mph 5.0 mph 86% 0.00 in
04:24 23.4 °F 19.8 °F 30.36 in South 2.0 mph 5.0 mph 86% 0.00 in
04:29 23.5 °F 19.9 °F 30.36 in South 2.0 mph 5.0 mph 86% 0.00 in
04:34 23.5 °F 19.9 °F 30.36 in South 3.0 mph 6.0 mph 86% 0.00 in
04:39 23.5 °F 19.9 °F 30.36 in South 2.0 mph 6.0 mph 86% 0.00 in
04:44 23.6 °F 20.0 °F 30.36 in South 2.0 mph 6.0 mph 86% 0.00 in
04:49 23.7 °F 20.1 °F 30.36 in South 4.0 mph 4.0 mph 86% 0.00 in
04:54 23.7 °F 19.9 °F 30.36 in South 2.0 mph 6.0 mph 85% 0.00 in
04:59 23.7 °F 19.9 °F 30.36 in South 2.0 mph 4.0 mph 85% 0.00 in
05:04 23.7 °F 19.9 °F 30.36 in SSW 2.0 mph 5.0 mph 85% 0.00 in
05:09 23.8 °F 19.9 °F 30.36 in SSW 3.0 mph 6.0 mph 85% 0.00 in
05:14 23.8 °F 20.2 °F 30.37 in SSW 1.0 mph 5.0 mph 86% 0.00 in
05:19 23.9 °F 20.3 °F 30.37 in SSW 2.0 mph 6.0 mph 86% 0.00 in
05:24 23.9 °F 20.3 °F 30.37 in South 3.0 mph 4.0 mph 86% 0.00 in
05:34 23.9 °F 20.3 °F 30.37 in South 1.0 mph 4.0 mph 86% 0.00 in
05:39 23.9 °F 20.3 °F 30.37 in SSW 1.0 mph 3.0 mph 86% 0.00 in
05:49 24.0 °F 20.4 °F 30.37 in SSW 2.0 mph 4.0 mph 86% 0.00 in
05:54 24.2 °F 20.6 °F 30.37 in SSW 2.0 mph 7.0 mph 86% 0.00 in
05:59 24.2 °F 20.6 °F 30.37 in SW 3.0 mph 7.0 mph 86% 0.00 in
06:04 24.3 °F 20.7 °F 30.38 in SW 2.0 mph 6.0 mph 86% 0.00 in
06:09 24.2 °F 20.6 °F 30.37 in SSW 3.0 mph 5.0 mph 86% 0.00 in
06:19 24.3 °F 21.0 °F 30.38 in SSW 2.0 mph 4.0 mph 87% 0.00 in
06:24 24.3 °F 21.0 °F 30.38 in SW 5.0 mph 6.0 mph 87% 0.00 in
06:44 24.3 °F 21.0 °F 30.38 in South 3.0 mph 5.0 mph 87% 0.00 in
06:49 24.5 °F 21.2 °F 30.38 in SSW 3.0 mph 6.0 mph 87% 0.00 in
06:54 24.5 °F 21.2 °F 30.38 in SW 1.0 mph 6.0 mph 87% 0.00 in
06:59 24.6 °F 21.3 °F 30.38 in SSW 4.0 mph 8.0 mph 87% 0.00 in
07:04 24.6 °F 21.3 °F 30.38 in SW 4.0 mph 8.0 mph 87% 0.00 in
07:09 24.7 °F 21.7 °F 30.39 in SW 4.0 mph 8.0 mph 88% 0.00 in
07:14 24.7 °F 21.4 °F 30.39 in SW 4.0 mph 11.0 mph 87% 0.00 in
07:19 24.5 °F 21.2 °F 30.39 in SW 5.0 mph 7.0 mph 87% 0.00 in
07:24 24.5 °F 21.2 °F 30.40 in SW 2.0 mph 7.0 mph 87% 0.00 in
07:29 24.5 °F 21.2 °F 30.39 in SW 6.0 mph 7.0 mph 87% 0.00 in
07:34 24.5 °F 21.2 °F 30.40 in SW 3.0 mph 7.0 mph 87% 0.00 in
07:39 24.5 °F 21.2 °F 30.40 in SW 4.0 mph 7.0 mph 87% 0.00 in
07:44 24.4 °F 21.1 °F 30.39 in SW 3.0 mph 7.0 mph 87% 0.00 in
07:49 24.4 °F 20.8 °F 30.40 in WSW 2.0 mph 9.0 mph 86% 0.00 in
07:54 24.3 °F 20.7 °F 30.40 in SW 4.0 mph 8.0 mph 86% 0.00 in
07:59 24.3 °F 20.7 °F 30.40 in SW 5.0 mph 8.0 mph 86% 0.00 in
08:04 24.3 °F 20.4 °F 30.40 in WSW 4.0 mph 9.0 mph 85% 0.00 in
08:09 24.3 °F 20.4 °F 30.40 in WSW 4.0 mph 9.0 mph 85% 0.00 in
08:14 24.3 °F 20.4 °F 30.40 in SW 4.0 mph 8.0 mph 85% 0.00 in
08:19 24.3 °F 20.4 °F 30.40 in SW 5.0 mph 6.0 mph 85% 0.00 in
08:29 24.3 °F 20.2 °F 30.40 in SW 3.0 mph 7.0 mph 84% 0.00 in
08:34 24.3 °F 20.2 °F 30.40 in South 2.0 mph 7.0 mph 84% 0.00 in
08:39 24.4 °F 20.3 °F 30.40 in SSW 2.0 mph 5.0 mph 84% 0.00 in
08:44 24.5 °F 20.4 °F 30.40 in SW 1.0 mph 6.0 mph 84% 0.00 in
08:54 24.4 °F 20.3 °F 30.41 in WSW 4.0 mph 8.0 mph 84% 0.00 in
08:59 24.5 °F 20.4 °F 30.41 in SW 3.0 mph 7.0 mph 84% 0.00 in
09:04 24.5 °F 20.4 °F 30.41 in SW 5.0 mph 8.0 mph 84% 0.00 in
09:09 24.6 °F 20.2 °F 30.42 in SW 9.0 mph 9.0 mph 83% 0.00 in
09:14 24.7 °F 20.3 °F 30.42 in SW 5.0 mph 10.0 mph 83% 0.00 in
09:19 24.9 °F 20.2 °F 30.42 in SW 5.0 mph 10.0 mph 82% 0.00 in
09:24 25.1 °F 20.4 °F 30.42 in WSW 4.0 mph 8.0 mph 82% 0.00 in
09:29 25.2 °F 20.2 °F 30.42 in WSW 4.0 mph 10.0 mph 81% 0.00 in
09:34 25.3 °F 20.0 °F 30.42 in SW 8.0 mph 11.0 mph 80% 0.00 in
09:39 25.3 °F 20.0 °F 30.43 in WSW 6.0 mph 11.0 mph 80% 0.00 in
09:44 25.3 °F 20.0 °F 30.43 in WSW 6.0 mph 12.0 mph 80% 0.00 in
09:49 25.5 °F 20.2 °F 30.43 in WSW 6.0 mph 12.0 mph 80% 0.00 in
09:54 25.5 °F 20.2 °F 30.43 in WSW 6.0 mph 12.0 mph 80% 0.00 in
10:04 25.2 °F 19.9 °F 30.43 in SW 3.0 mph 13.0 mph 80% 0.00 in
10:09 25.1 °F 19.5 °F 30.43 in WSW 8.0 mph 11.0 mph 79% 0.00 in
10:14 25.2 °F 19.6 °F 30.43 in SSW 7.0 mph 11.0 mph 79% 0.00 in
10:19 25.4 °F 19.8 °F 30.43 in WSW 7.0 mph 11.0 mph 79% 0.00 in
10:24 25.5 °F 19.6 °F 30.43 in WSW 6.0 mph 11.0 mph 78% 0.00 in
10:29 25.8 °F 19.9 °F 30.43 in WSW 6.0 mph 10.0 mph 78% 0.00 in
10:34 25.8 °F 19.6 °F 30.43 in WSW 5.0 mph 10.0 mph 77% 0.00 in
10:39 26.0 °F 19.8 °F 30.43 in WSW 5.0 mph 11.0 mph 77% 0.00 in
10:44 26.1 °F 19.6 °F 30.43 in SW 4.0 mph 10.0 mph 76% 0.00 in
10:59 26.3 °F 19.5 °F 30.43 in WSW 5.0 mph 12.0 mph 75% 0.00 in
11:04 26.8 °F 19.9 °F 30.43 in WSW 4.0 mph 8.0 mph 75% 0.00 in
11:09 27.5 °F 20.3 °F 30.43 in WSW 3.0 mph 8.0 mph 74% 0.00 in
11:14 27.9 °F 20.4 °F 30.43 in WNW 8.0 mph 8.0 mph 73% 0.01 in
11:19 28.2 °F 20.3 °F 30.43 in West 5.0 mph 9.0 mph 72% 0.01 in
11:24 28.2 °F 20.3 °F 30.43 in West 5.0 mph 9.0 mph 72% 0.01 in
11:29 28.1 °F 19.9 °F 30.43 in WSW 4.0 mph 8.0 mph 71% 0.01 in
11:34 27.3 °F 19.1 °F 30.42 in WSW 5.0 mph 9.0 mph 71% 0.01 in
11:39 27.4 °F 19.6 °F 30.42 in WSW 5.0 mph 10.0 mph 72% 0.01 in
11:44 27.5 °F 19.7 °F 30.42 in SW 4.0 mph 10.0 mph 72% 0.01 in
11:49 27.0 °F 18.8 °F 30.42 in WSW 2.0 mph 8.0 mph 71% 0.01 in
11:54 26.5 °F 18.7 °F 30.42 in WSW 4.0 mph 9.0 mph 72% 0.01 in
11:59 26.6 °F 18.8 °F 30.41 in SW 3.0 mph 9.0 mph 72% 0.01 in
12:04 26.6 °F 18.8 °F 30.41 in West 3.0 mph 8.0 mph 72% 0.02 in
12:09 26.8 °F 19.0 °F 30.41 in WSW 3.0 mph 8.0 mph 72% 0.03 in
12:14 26.7 °F 18.9 °F 30.41 in SW 2.0 mph 8.0 mph 72% 0.02 in
12:19 26.7 °F 18.9 °F 30.40 in WSW 3.0 mph 8.0 mph 72% 0.02 in
12:24 26.8 °F 19.0 °F 30.40 in SW 3.0 mph 5.0 mph 72% 0.02 in
12:29 26.6 °F 18.8 °F 30.40 in WSW 4.0 mph 6.0 mph 72% 0.02 in
12:34 26.6 °F 18.8 °F 30.39 in SSW 2.0 mph 6.0 mph 72% 0.02 in
12:39 26.6 °F 18.5 °F 30.39 in SW 3.0 mph 7.0 mph 71% 0.02 in
12:44 26.6 °F 18.5 °F 30.39 in SW 4.0 mph 7.0 mph 71% 0.02 in
12:49 26.9 °F 18.7 °F 30.39 in SW 4.0 mph 7.0 mph 71% 0.02 in
12:54 26.4 °F 18.3 °F 30.39 in SW 4.0 mph 7.0 mph 71% 0.02 in
12:59 25.8 °F 18.3 °F 30.39 in SSW 5.0 mph 8.0 mph 73% 0.02 in
13:04 26.0 °F 18.8 °F 30.39 in WSW 4.0 mph 8.0 mph 74% 0.02 in
13:09 25.8 °F 18.7 °F 30.39 in SW 5.0 mph 8.0 mph 74% 0.01 in
13:14 25.5 °F 19.0 °F 30.39 in WSW 4.0 mph 7.0 mph 76% 0.01 in
13:19 25.4 °F 19.2 °F 30.39 in West 3.0 mph 7.0 mph 77% 0.01 in
13:24 25.3 °F 19.4 °F 30.39 in SSW 2.0 mph 8.0 mph 78% 0.01 in
13:29 25.5 °F 19.6 °F 30.39 in South 4.0 mph 7.0 mph 78% 0.02 in
13:34 25.6 °F 19.7 °F 30.39 in WSW 4.0 mph 9.0 mph 78% 0.02 in
13:39 25.7 °F 19.8 °F 30.39 in WSW 6.0 mph 7.0 mph 78% 0.02 in
13:44 25.6 °F 19.7 °F 30.39 in SW 4.0 mph 8.0 mph 78% 0.02 in
13:49 25.7 °F 19.8 °F 30.39 in WSW 5.0 mph 8.0 mph 78% 0.02 in
13:54 25.9 °F 20.0 °F 30.38 in WSW 4.0 mph 8.0 mph 78% 0.02 in
13:59 25.9 °F 20.0 °F 30.38 in WSW 4.0 mph 9.0 mph 78% 0.02 in
14:04 25.8 °F 19.9 °F 30.39 in SW 4.0 mph 7.0 mph 78% 0.01 in
14:14 25.9 °F 20.0 °F 30.38 in SW 4.0 mph 7.0 mph 78% 0.01 in
14:19 25.6 °F 19.7 °F 30.39 in WSW 3.0 mph 7.0 mph 78% 0.01 in
14:24 25.5 °F 19.9 °F 30.39 in WSW 4.0 mph 7.0 mph 79% 0.01 in
14:34 25.4 °F 19.8 °F 30.39 in SW 2.0 mph 5.0 mph 79% 0.00 in
14:39 25.4 °F 19.8 °F 30.38 in WSW 3.0 mph 6.0 mph 79% 0.00 in
14:44 25.5 °F 19.9 °F 30.38 in SW 2.0 mph 5.0 mph 79% 0.00 in
14:49 25.3 °F 19.7 °F 30.38 in SW 3.0 mph 5.0 mph 79% 0.00 in
14:59 25.6 °F 20.0 °F 30.38 in SW 2.0 mph 6.0 mph 79% 0.00 in
15:04 25.8 °F 20.2 °F 30.39 in SW 2.0 mph 6.0 mph 79% 0.00 in
15:09 26.0 °F 20.4 °F 30.39 in SW 2.0 mph 4.0 mph 79% 0.00 in
15:14 25.8 °F 20.5 °F 30.39 in WSW 3.0 mph 6.0 mph 80% 0.00 in
15:19 25.4 °F 20.1 °F 30.39 in WSW 4.0 mph 6.0 mph 80% 0.00 in
15:24 25.1 °F 19.8 °F 30.39 in West 2.0 mph 7.0 mph 80% 0.00 in
15:29 24.9 °F 19.6 °F 30.39 in West 2.0 mph 6.0 mph 80% 0.00 in
15:34 25.0 °F 19.7 °F 30.39 in WSW 6.0 mph 6.0 mph 80% 0.00 in
15:39 24.9 °F 19.6 °F 30.39 in WSW 5.0 mph 8.0 mph 80% 0.00 in
15:44 24.8 °F 19.5 °F 30.39 in WSW 4.0 mph 8.0 mph 80% 0.00 in
15:54 24.2 °F 19.2 °F 30.39 in SSW 3.0 mph 5.0 mph 81% 0.00 in
16:04 23.5 °F 18.5 °F 30.39 in SSW 2.0 mph 7.0 mph 81% 0.00 in
16:19 23.0 °F 18.3 °F 30.39 in SSW 3.0 mph 7.0 mph 82% 0.00 in
16:24 22.9 °F 18.2 °F 30.39 in SW 3.0 mph 4.0 mph 82% 0.00 in
16:29 22.8 °F 18.1 °F 30.39 in SW 3.0 mph 6.0 mph 82% 0.00 in
16:34 22.8 °F 18.4 °F 30.39 in SW 3.0 mph 6.0 mph 83% 0.00 in
16:39 22.5 °F 18.1 °F 30.40 in SSW 3.0 mph 8.0 mph 83% 0.00 in
16:44 22.4 °F 18.0 °F 30.40 in SW 4.0 mph 8.0 mph 83% 0.00 in
16:49 22.3 °F 17.9 °F 30.39 in SW 2.0 mph 7.0 mph 83% 0.00 in
16:54 22.1 °F 17.7 °F 30.40 in SSW 8.0 mph 9.0 mph 83% 0.00 in
16:59 21.9 °F 17.5 °F 30.40 in SW 8.0 mph 8.0 mph 83% 0.00 in
17:04 21.7 °F 17.3 °F 30.40 in SW 2.0 mph 8.0 mph 83% 0.00 in
17:09 21.5 °F 17.1 °F 30.40 in SW 5.0 mph 9.0 mph 83% 0.00 in
17:14 21.4 °F 17.0 °F 30.40 in SW 5.0 mph 9.0 mph 83% 0.00 in
17:24 21.2 °F 17.1 °F 30.41 in SW 4.0 mph 8.0 mph 84% 0.00 in
17:29 21.2 °F 17.1 °F 30.41 in SW 4.0 mph 9.0 mph 84% 0.00 in
18:54 18.9 °F 15.1 °F 30.43 in SW 6.0 mph 13.0 mph 85% 0.00 in
18:59 18.6 °F 14.6 °F 30.43 in SW 7.0 mph 13.0 mph 84% 0.00 in
19:04 18.4 °F 14.4 °F 30.43 in SW 8.0 mph 13.0 mph 84% 0.00 in
19:09 18.2 °F 14.4 °F 30.43 in SW 7.0 mph 12.0 mph 85% 0.00 in
19:14 18.1 °F 14.4 °F 30.43 in SW 7.0 mph 11.0 mph 85% 0.00 in
19:19 18.0 °F 14.3 °F 30.43 in WSW 3.0 mph 12.0 mph 85% 0.00 in
19:24 17.9 °F 14.2 °F 30.43 in WSW 3.0 mph 8.0 mph 85% 0.00 in
19:29 18.0 °F 14.3 °F 30.44 in WSW 7.0 mph 11.0 mph 85% 0.00 in
19:34 17.9 °F 14.2 °F 30.43 in WSW 5.0 mph 11.0 mph 85% 0.00 in
19:39 18.0 °F 14.3 °F 30.44 in SW 13.0 mph 13.0 mph 85% 0.00 in
19:49 17.7 °F 14.0 °F 30.44 in WSW 3.0 mph 11.0 mph 85% 0.00 in
19:59 17.5 °F 13.8 °F 30.44 in WSW 4.0 mph 12.0 mph 85% 0.00 in
20:09 17.3 °F 13.3 °F 30.44 in WNW 7.0 mph 8.0 mph 84% 0.00 in
20:14 17.3 °F 13.3 °F 30.44 in WSW 6.0 mph 10.0 mph 84% 0.00 in
20:19 17.3 °F 13.3 °F 30.44 in SW 10.0 mph 11.0 mph 84% 0.00 in
20:24 17.2 °F 13.2 °F 30.44 in WSW 6.0 mph 13.0 mph 84% 0.00 in
20:34 17.0 °F 13.0 °F 30.44 in WSW 6.0 mph 18.0 mph 84% 0.00 in
20:39 17.0 °F 13.0 °F 30.44 in WSW 4.0 mph 11.0 mph 84% 0.00 in
20:44 17.0 °F 13.0 °F 30.44 in West 4.0 mph 6.0 mph 84% 0.00 in
20:49 16.9 °F 12.6 °F 30.45 in SSW 7.0 mph 13.0 mph 83% 0.00 in
20:59 16.8 °F 12.5 °F 30.45 in WSW 2.0 mph 8.0 mph 83% 0.00 in
21:04 16.7 °F 12.4 °F 30.45 in WSW 5.0 mph 8.0 mph 83% 0.00 in
21:09 16.7 °F 12.4 °F 30.45 in WSW 4.0 mph 12.0 mph 83% 0.00 in
21:14 16.5 °F 12.0 °F 30.45 in West 5.0 mph 12.0 mph 82% 0.00 in
21:19 16.4 °F 11.9 °F 30.45 in WSW 5.0 mph 12.0 mph 82% 0.00 in
21:24 16.3 °F 11.5 °F 30.45 in West 7.0 mph 12.0 mph 81% 0.00 in
21:39 16.2 °F 11.4 °F 30.44 in WSW 6.0 mph 12.0 mph 81% 0.00 in
21:44 16.3 °F 11.5 °F 30.44 in WSW 6.0 mph 16.0 mph 81% 0.00 in
21:49 16.2 °F 11.4 °F 30.45 in WSW 6.0 mph 16.0 mph 81% 0.00 in
21:54 16.2 °F 11.4 °F 30.45 in SW 6.0 mph 15.0 mph 81% 0.00 in
22:09 15.9 °F 10.8 °F 30.45 in SW 4.0 mph 9.0 mph 80% 0.00 in
22:19 15.8 °F 10.4 °F 30.45 in WSW 8.0 mph 12.0 mph 79% 0.00 in
22:24 15.9 °F 10.5 °F 30.45 in WSW 6.0 mph 12.0 mph 79% 0.00 in
22:34 16.0 °F 10.9 °F 30.45 in SSW 6.0 mph 8.0 mph 80% 0.00 in
22:39 16.0 °F 10.9 °F 30.45 in SW 4.0 mph 13.0 mph 80% 0.00 in
22:44 15.8 °F 10.7 °F 30.44 in WSW 7.0 mph 13.0 mph 80% 0.00 in
22:49 15.8 °F 10.7 °F 30.44 in WSW 6.0 mph 13.0 mph 80% 0.00 in
22:59 15.7 °F 10.3 °F 30.44 in WSW 6.0 mph 14.0 mph 79% 0.00 in
23:04 15.8 °F 10.4 °F 30.44 in WSW 7.0 mph 14.0 mph 79% 0.00 in
23:09 15.7 °F 10.3 °F 30.44 in WSW 7.0 mph 14.0 mph 79% 0.00 in
23:14 15.8 °F 10.4 °F 30.44 in WSW 10.0 mph 11.0 mph 79% 0.00 in
23:19 15.8 °F 10.4 °F 30.45 in WSW 7.0 mph 12.0 mph 79% 0.00 in
23:24 15.9 °F 10.5 °F 30.44 in West 7.0 mph 13.0 mph 79% 0.00 in
23:29 15.9 °F 10.5 °F 30.44 in SW 3.0 mph 11.0 mph 79% 0.00 in
23:34 15.9 °F 10.8 °F 30.44 in SW 4.0 mph 11.0 mph 80% 0.00 in
23:39 15.9 °F 10.8 °F 30.44 in WSW 4.0 mph 14.0 mph 80% 0.00 in
23:44 15.9 °F 10.8 °F 30.44 in SW 5.0 mph 10.0 mph 80% 0.00 in
23:49 16.0 °F 11.2 °F 30.44 in SW 6.0 mph 11.0 mph 81% 0.00 in
23:54 16.0 °F 11.2 °F 30.44 in SW 7.0 mph 14.0 mph 81% 0.00 in
23:59 15.9 °F 11.1 °F 30.44 in SW 7.0 mph 14.0 mph 81% 0.00 in
Buffalo, New York, USA
Compliments of Weather Underground - 2 mb